International Virtual Aviation Organisation

Eastern Europe and Northern Asia MCD

 
URSS 201000Z 23004MPS 200V270 9999 FEW050CB OVC130 18/11 Q1007 WS ALL RWY R02/010070 R06/010070 NOSIG RMK R06/27006MPS QFE754
QNH:(hPa/inHg/mmHg)1007 / 29.74 / 755
QFE:(hPa/inHg/mmHg)1004 / 29.64 / 753
Temperature18
Dew Point11
Visibility> 10000
Weather
Cloud CoverFEW (5000);
OVC (13000);
Transition Height1100 m./3700 ft.
Transition LevelFL60
SQUAWK